Terminal Aerodrome Forecast
Issued by NWS

Home | Current Version | Previous Version | Text Only | Print | Product List | Glossary On
Versions: 1 2 3 4 5 6 7 8 9 10 11 12 13 14 15 16 17
000
FTUS43 KAPX 060819 AAA
TAFAPN
TAF AMD
KAPN 060819Z 0608/0706 VRB03KT 4SM BR SCT002 BKN200
      TEMPO 0608/0611 1/2SM FG VV001
     FM061500 11007KT P6SM SCT100
     FM070100 09003KT P6SM BKN100=

USA.gov is the U.S. government's official web portal to all federal, state and local government web resources and services.